Time,TemperatureF,DewpointF,PressureIn,WindDirection,WindDirectionDegrees,WindSpeedMPH,WindSpeedGustMPH,Humidity,HourlyPrecipIn,Conditions,Clouds,dailyrainin,SoftwareType,DateUTC
2013-04-29 00:01:00,48.7,38.7,30.28,South,187,0.0,0.0,68,0.00,,,0.00,VWS V14.00,2013-04-29 04:01:00,
2013-04-29 00:02:00,48.7,38.7,30.28,South,187,0.0,0.0,68,0.00,,,0.00,VWS V14.00,2013-04-29 04:02:00,
2013-04-29 00:07:00,48.6,38.8,30.28,South,187,0.0,0.0,69,0.00,,,0.00,VWS V14.00,2013-04-29 04:07:00,
2013-04-29 00:12:00,48.5,38.6,30.28,South,187,0.0,0.0,68,0.00,,,0.00,VWS V14.00,2013-04-29 04:12:00,
2013-04-29 00:17:00,48.5,38.8,30.28,South,187,0.0,0.0,69,0.00,,,0.00,VWS V14.00,2013-04-29 04:17:00,
2013-04-29 00:22:00,48.3,38.7,30.28,South,187,0.0,0.0,69,0.00,,,0.00,VWS V14.00,2013-04-29 04:22:00,
2013-04-29 00:27:00,48.2,38.7,30.28,South,187,0.0,0.0,70,0.00,,,0.00,VWS V14.00,2013-04-29 04:27:00,
2013-04-29 00:32:00,48.2,38.9,30.28,South,187,0.0,0.0,70,0.00,,,0.00,VWS V14.00,2013-04-29 04:32:00,
2013-04-29 00:37:00,48.1,39.0,30.28,South,187,0.0,0.0,70,0.00,,,0.00,VWS V14.00,2013-04-29 04:37:00,
2013-04-29 00:42:00,47.9,38.8,30.28,South,187,0.0,0.0,70,0.00,,,0.00,VWS V14.00,2013-04-29 04:42:00,
2013-04-29 00:47:00,47.9,39.2,30.28,South,187,0.0,0.0,72,0.00,,,0.00,VWS V14.00,2013-04-29 04:47:00,
2013-04-29 00:52:00,47.9,39.3,30.28,South,187,0.0,0.0,72,0.00,,,0.00,VWS V14.00,2013-04-29 04:52:00,
2013-04-29 00:58:00,47.8,39.3,30.28,South,187,0.0,0.0,72,0.00,,,0.00,VWS V14.00,2013-04-29 04:58:00,
2013-04-29 01:03:00,47.8,39.3,30.27,South,187,0.0,0.0,72,0.00,,-RA,0.00,VWS V14.00,2013-04-29 05:03:00,
2013-04-29 01:08:00,47.7,39.5,30.27,South,187,0.0,0.0,73,0.00,,-RA,0.00,VWS V14.00,2013-04-29 05:08:00,
2013-04-29 01:13:00,47.7,39.5,30.27,South,187,0.0,0.0,73,0.00,,-RA,0.00,VWS V14.00,2013-04-29 05:13:00,
2013-04-29 01:18:00,47.6,39.4,30.27,South,187,0.0,0.0,73,0.00,,-RA,0.00,VWS V14.00,2013-04-29 05:18:00,
2013-04-29 01:23:00,47.5,39.6,30.27,South,187,0.0,0.0,74,0.00,,-RA,0.00,VWS V14.00,2013-04-29 05:23:00,
2013-04-29 01:28:00,47.5,39.7,30.27,South,187,0.0,0.0,74,0.00,,-RA,0.00,VWS V14.00,2013-04-29 05:28:00,
2013-04-29 01:33:00,47.5,39.7,30.27,South,187,0.0,0.0,74,0.00,,-RA,0.00,VWS V14.00,2013-04-29 05:33:00,
2013-04-29 01:38:00,47.5,39.8,30.27,South,187,0.0,0.0,74,0.00,,-RA,0.00,VWS V14.00,2013-04-29 05:38:00,
2013-04-29 01:44:00,47.4,40.0,30.26,South,187,0.0,0.0,75,0.00,,-RA,0.00,VWS V14.00,2013-04-29 05:44:00,
2013-04-29 01:49:00,47.4,40.2,30.26,South,187,0.0,0.0,76,0.00,,-RA,0.00,VWS V14.00,2013-04-29 05:49:00,
2013-04-29 01:54:00,47.4,40.3,30.26,South,187,0.0,0.0,76,0.00,,-RA,0.00,VWS V14.00,2013-04-29 05:54:00,
2013-04-29 01:59:00,47.4,40.4,30.26,South,187,0.0,0.0,76,0.00,,-RA,0.00,VWS V14.00,2013-04-29 05:59:00,
2013-04-29 02:04:00,47.3,40.3,30.26,South,187,0.0,0.0,76,0.00,,,0.00,VWS V14.00,2013-04-29 06:04:00,
2013-04-29 02:09:00,47.3,40.5,30.26,South,187,0.0,0.0,77,0.00,,,0.00,VWS V14.00,2013-04-29 06:09:00,
2013-04-29 02:14:00,47.3,40.5,30.26,South,187,0.0,0.0,77,0.00,,,0.00,VWS V14.00,2013-04-29 06:14:00,
2013-04-29 02:19:00,47.3,40.7,30.26,South,187,0.0,0.0,78,0.00,,,0.00,VWS V14.00,2013-04-29 06:19:00,
2013-04-29 02:24:00,47.3,40.8,30.26,South,187,0.0,0.0,78,0.00,,,0.00,VWS V14.00,2013-04-29 06:24:00,
2013-04-29 02:29:00,47.3,40.9,30.26,South,187,0.0,0.0,78,0.00,,,0.00,VWS V14.00,2013-04-29 06:29:00,
2013-04-29 02:34:00,47.3,41.0,30.26,South,187,0.0,0.0,79,0.00,,,0.00,VWS V14.00,2013-04-29 06:34:00,
2013-04-29 02:40:00,47.3,41.2,30.25,South,187,0.0,0.0,79,0.00,,,0.00,VWS V14.00,2013-04-29 06:40:00,
2013-04-29 02:45:00,47.3,41.2,30.25,South,187,0.0,0.0,79,0.00,,,0.00,VWS V14.00,2013-04-29 06:45:00,
2013-04-29 02:50:00,47.2,41.2,30.25,South,187,0.0,0.0,80,0.00,,,0.00,VWS V14.00,2013-04-29 06:50:00,
2013-04-29 02:55:00,47.3,41.4,30.25,South,187,0.0,0.0,80,0.00,,,0.00,VWS V14.00,2013-04-29 06:55:00,
2013-04-29 03:00:00,47.2,41.3,30.25,South,187,0.0,0.0,80,0.00,,,0.00,VWS V14.00,2013-04-29 07:00:00,
2013-04-29 03:05:00,47.2,41.4,30.24,South,187,0.0,0.0,80,0.00,,,0.00,VWS V14.00,2013-04-29 07:05:00,
2013-04-29 03:10:00,47.2,41.5,30.24,South,187,0.0,0.0,81,0.00,,,0.00,VWS V14.00,2013-04-29 07:10:00,
2013-04-29 03:15:00,47.2,41.6,30.24,South,187,0.0,0.0,81,0.00,,,0.00,VWS V14.00,2013-04-29 07:15:00,
2013-04-29 03:20:00,47.2,41.6,30.24,South,187,0.0,0.0,81,0.00,,,0.00,VWS V14.00,2013-04-29 07:20:00,
2013-04-29 03:25:00,47.2,41.7,30.24,South,187,0.0,0.0,81,0.00,,,0.00,VWS V14.00,2013-04-29 07:25:00,
2013-04-29 03:30:00,47.2,41.8,30.24,South,187,0.0,0.0,81,0.00,,,0.00,VWS V14.00,2013-04-29 07:30:00,
2013-04-29 03:35:00,47.2,41.9,30.24,South,187,0.0,0.0,82,0.00,,,0.00,VWS V14.00,2013-04-29 07:35:00,
2013-04-29 03:41:00,47.3,42.0,30.24,South,187,0.0,0.0,82,0.00,,,0.00,VWS V14.00,2013-04-29 07:41:00,
2013-04-29 03:46:00,47.2,42.0,30.24,South,187,0.0,0.0,82,0.00,,,0.00,VWS V14.00,2013-04-29 07:46:00,
2013-04-29 03:51:00,47.3,42.2,30.24,South,187,0.0,0.0,82,0.00,,,0.00,VWS V14.00,2013-04-29 07:51:00,
2013-04-29 03:56:00,47.3,42.3,30.24,South,187,0.0,0.0,83,0.00,,,0.00,VWS V14.00,2013-04-29 07:56:00,
2013-04-29 04:01:00,47.3,42.4,30.24,South,187,0.0,0.0,83,0.00,,,0.00,VWS V14.00,2013-04-29 08:01:00,
2013-04-29 04:06:00,47.4,42.5,30.24,South,187,0.0,0.0,83,0.00,,,0.00,VWS V14.00,2013-04-29 08:06:00,
2013-04-29 04:11:00,47.4,42.6,30.25,South,187,0.0,0.0,83,0.00,,,0.00,VWS V14.00,2013-04-29 08:11:00,
2013-04-29 04:16:00,47.4,42.6,30.25,South,187,0.0,0.0,83,0.00,,,0.00,VWS V14.00,2013-04-29 08:16:00,
2013-04-29 04:21:00,47.5,42.8,30.25,South,187,0.0,0.0,84,0.00,,,0.00,VWS V14.00,2013-04-29 08:21:00,
2013-04-29 04:27:00,47.5,42.9,30.25,South,187,0.0,0.0,84,0.00,,,0.00,VWS V14.00,2013-04-29 08:27:00,
2013-04-29 04:32:00,47.5,42.9,30.24,South,187,0.0,0.0,84,0.00,,,0.00,VWS V14.00,2013-04-29 08:32:00,
2013-04-29 04:37:00,47.5,43.0,30.25,South,187,0.0,0.0,84,0.00,,,0.00,VWS V14.00,2013-04-29 08:37:00,
2013-04-29 04:42:00,47.5,43.1,30.25,South,187,0.0,0.0,84,0.00,,,0.00,VWS V14.00,2013-04-29 08:42:00,
2013-04-29 04:47:00,47.5,43.1,30.25,South,187,0.0,0.0,85,0.00,,,0.00,VWS V14.00,2013-04-29 08:47:00,
2013-04-29 04:52:00,47.5,43.2,30.25,South,187,0.0,0.0,85,0.00,,,0.00,VWS V14.00,2013-04-29 08:52:00,
2013-04-29 04:57:00,47.5,43.4,30.25,South,187,0.0,0.0,86,0.00,,,0.00,VWS V14.00,2013-04-29 08:57:00,
2013-04-29 05:02:00,47.5,43.5,30.25,South,187,0.0,0.0,86,0.00,,,0.00,VWS V14.00,2013-04-29 09:02:00,
2013-04-29 05:07:00,47.6,43.7,30.25,South,187,0.0,0.0,86,0.00,,,0.00,VWS V14.00,2013-04-29 09:07:00,
2013-04-29 05:13:00,47.5,43.6,30.25,South,187,0.0,0.0,86,0.00,,,0.00,VWS V14.00,2013-04-29 09:13:00,
2013-04-29 05:18:00,47.5,43.7,30.25,South,187,0.0,0.0,87,0.00,,,0.00,VWS V14.00,2013-04-29 09:18:00,
2013-04-29 05:23:00,47.5,43.9,30.25,South,187,0.0,0.0,87,0.00,,,0.00,VWS V14.00,2013-04-29 09:23:00,
2013-04-29 05:28:00,47.5,43.9,30.25,South,187,0.0,0.0,87,0.00,,,0.00,VWS V14.00,2013-04-29 09:28:00,
2013-04-29 05:33:00,47.4,43.9,30.25,South,187,0.0,0.0,88,0.00,,,0.00,VWS V14.00,2013-04-29 09:33:00,
2013-04-29 05:38:00,47.4,44.0,30.25,South,187,0.0,0.0,88,0.00,,,0.00,VWS V14.00,2013-04-29 09:38:00,
2013-04-29 05:43:00,47.5,44.2,30.25,South,187,0.0,0.0,88,0.00,,,0.00,VWS V14.00,2013-04-29 09:43:00,
2013-04-29 05:48:00,47.4,44.1,30.26,South,187,0.0,0.0,88,0.00,,,0.00,VWS V14.00,2013-04-29 09:48:00,
2013-04-29 05:53:00,47.4,44.2,30.26,South,187,0.0,0.0,89,0.00,,,0.00,VWS V14.00,2013-04-29 09:53:00,
2013-04-29 05:59:00,47.5,44.5,30.26,South,187,0.0,0.0,89,0.00,,,0.00,VWS V14.00,2013-04-29 09:59:00,
2013-04-29 06:04:00,47.6,44.8,30.26,South,187,0.0,0.0,90,0.00,,,0.00,VWS V14.00,2013-04-29 10:04:00,
2013-04-29 06:09:00,47.6,44.7,30.26,South,187,0.0,0.0,90,0.00,,,0.00,VWS V14.00,2013-04-29 10:09:00,
2013-04-29 06:14:00,47.7,44.9,30.26,South,187,0.0,0.0,90,0.00,,,0.00,VWS V14.00,2013-04-29 10:14:00,
2013-04-29 06:19:00,47.8,45.0,30.26,South,187,0.0,0.0,90,0.00,,,0.00,VWS V14.00,2013-04-29 10:19:00,
2013-04-29 06:24:00,47.8,45.0,30.26,South,187,0.0,0.0,90,0.00,,,0.00,VWS V14.00,2013-04-29 10:24:00,
2013-04-29 06:29:00,47.8,45.0,30.26,South,187,0.0,0.0,90,0.00,,,0.00,VWS V14.00,2013-04-29 10:29:00,
2013-04-29 06:34:00,48.0,45.2,30.26,South,187,0.0,0.0,90,0.00,,,0.00,VWS V14.00,2013-04-29 10:34:00,
2013-04-29 06:39:00,48.0,45.3,30.26,South,187,0.0,0.0,90,0.00,,,0.00,VWS V14.00,2013-04-29 10:39:00,
2013-04-29 06:44:00,48.2,45.5,30.26,South,187,0.0,0.0,90,0.00,,,0.00,VWS V14.00,2013-04-29 10:44:00,
2013-04-29 06:49:00,48.4,45.8,30.26,South,187,0.0,0.0,90,0.00,,,0.00,VWS V14.00,2013-04-29 10:49:00,
2013-04-29 06:55:00,48.5,45.8,30.27,South,187,0.0,0.0,90,0.00,,,0.00,VWS V14.00,2013-04-29 10:55:00,
2013-04-29 07:00:00,48.5,45.8,30.26,South,187,0.0,0.0,90,0.00,,,0.00,VWS V14.00,2013-04-29 11:00:00,
2013-04-29 07:05:00,48.6,45.9,30.27,South,187,0.0,0.0,90,0.00,,,0.00,VWS V14.00,2013-04-29 11:05:00,
2013-04-29 07:10:00,48.8,46.2,30.27,South,187,0.0,0.0,90,0.00,,,0.00,VWS V14.00,2013-04-29 11:10:00,
2013-04-29 07:15:00,48.9,46.2,30.27,South,187,0.0,0.0,90,0.00,,,0.00,VWS V14.00,2013-04-29 11:15:00,
2013-04-29 07:20:00,49.0,46.3,30.27,South,187,0.0,0.0,90,0.00,,,0.00,VWS V14.00,2013-04-29 11:20:00,
2013-04-29 07:25:00,49.2,46.5,30.27,South,187,0.0,0.0,90,0.00,,,0.00,VWS V14.00,2013-04-29 11:25:00,
2013-04-29 07:30:00,49.4,46.7,30.27,South,187,0.0,0.0,90,0.00,,,0.00,VWS V14.00,2013-04-29 11:30:00,
2013-04-29 07:35:00,49.5,46.8,30.27,South,187,0.0,0.0,90,0.00,,,0.00,VWS V14.00,2013-04-29 11:35:00,
2013-04-29 07:40:00,49.9,47.2,30.27,South,187,0.0,0.0,90,0.00,,,0.00,VWS V14.00,2013-04-29 11:40:00,
2013-04-29 07:45:00,50.3,47.6,30.27,South,187,0.0,0.0,90,0.00,,,0.00,VWS V14.00,2013-04-29 11:45:00,
2013-04-29 07:51:00,50.7,48.0,30.27,South,187,0.0,0.0,90,0.00,,,0.00,VWS V14.00,2013-04-29 11:51:00,
2013-04-29 07:56:00,51.1,48.3,30.27,South,187,0.0,0.0,90,0.00,,,0.00,VWS V14.00,2013-04-29 11:56:00,
2013-04-29 08:01:00,51.6,48.7,30.27,South,187,0.0,0.0,90,0.00,,,0.00,VWS V14.00,2013-04-29 12:01:00,
2013-04-29 08:06:00,52.0,49.0,30.27,South,187,0.0,0.0,89,0.00,,,0.00,VWS V14.00,2013-04-29 12:06:00,
2013-04-29 08:11:00,52.2,48.9,30.27,South,187,0.0,0.0,88,0.00,,,0.00,VWS V14.00,2013-04-29 12:11:00,
2013-04-29 08:16:00,52.6,49.3,30.27,South,187,0.0,0.0,88,0.00,,,0.00,VWS V14.00,2013-04-29 12:16:00,
2013-04-29 08:21:00,52.9,49.3,30.27,South,187,0.0,0.0,88,0.00,,,0.00,VWS V14.00,2013-04-29 12:21:00,
2013-04-29 08:26:00,53.3,49.9,30.27,South,187,0.0,0.0,88,0.00,,,0.00,VWS V14.00,2013-04-29 12:26:00,
2013-04-29 08:31:00,53.5,49.4,30.27,South,187,0.0,0.0,86,0.00,,,0.00,VWS V14.00,2013-04-29 12:31:00,
2013-04-29 08:33:00,53.6,49.7,30.27,South,187,0.0,0.0,86,0.00,,,0.00,VWS V14.00,2013-04-29 12:33:00,
2013-04-29 08:38:00,53.7,49.6,30.27,South,187,0.0,0.0,86,0.00,,,0.00,VWS V14.00,2013-04-29 12:38:00,
2013-04-29 08:43:00,53.7,49.6,30.27,South,187,0.0,0.0,86,0.00,,,0.00,VWS V14.00,2013-04-29 12:43:00,
2013-04-29 08:48:00,53.9,49.9,30.27,South,187,0.0,0.0,86,0.00,,,0.00,VWS V14.00,2013-04-29 12:48:00,
2013-04-29 08:53:00,53.7,50.0,30.27,South,187,0.0,0.0,87,0.00,,,0.00,VWS V14.00,2013-04-29 12:53:00,
2013-04-29 08:58:00,53.6,50.1,30.27,South,187,0.0,0.0,88,0.01,,,0.01,VWS V14.00,2013-04-29 12:58:00,
2013-04-29 09:03:00,53.5,50.3,30.27,South,187,0.0,0.0,89,0.01,,,0.01,VWS V14.00,2013-04-29 13:03:00,
2013-04-29 09:08:00,53.4,50.5,30.27,South,187,0.0,0.0,90,0.01,,,0.01,VWS V14.00,2013-04-29 13:08:00,
2013-04-29 09:13:00,53.3,50.5,30.27,South,187,0.0,0.0,90,0.01,,,0.01,VWS V14.00,2013-04-29 13:13:00,
2013-04-29 09:18:00,53.3,50.7,30.27,South,187,0.0,0.0,91,0.01,,,0.01,VWS V14.00,2013-04-29 13:18:00,
2013-04-29 09:24:00,53.4,50.6,30.27,South,187,0.0,0.0,90,0.01,,,0.01,VWS V14.00,2013-04-29 13:24:00,
2013-04-29 09:29:00,53.5,50.8,30.27,South,187,0.0,0.0,91,0.01,,,0.01,VWS V14.00,2013-04-29 13:29:00,
2013-04-29 09:34:00,53.5,50.6,30.27,South,187,0.0,0.0,90,0.01,,,0.01,VWS V14.00,2013-04-29 13:34:00,
2013-04-29 09:39:00,53.5,50.5,30.27,South,187,0.0,0.0,90,0.01,,,0.01,VWS V14.00,2013-04-29 13:39:00,
2013-04-29 09:44:00,53.8,50.5,30.27,South,187,0.0,0.0,89,0.00,,,0.01,VWS V14.00,2013-04-29 13:44:00,
2013-04-29 09:49:00,53.9,50.4,30.27,South,187,0.0,0.0,88,0.00,,,0.01,VWS V14.00,2013-04-29 13:49:00,
2013-04-29 09:54:00,54.0,50.4,30.27,South,187,0.0,0.0,88,0.00,,,0.01,VWS V14.00,2013-04-29 13:54:00,
2013-04-29 09:59:00,54.0,49.6,30.27,South,187,0.0,0.0,85,0.00,,,0.01,VWS V14.00,2013-04-29 13:59:00,
2013-04-29 10:04:00,54.1,50.1,30.27,South,187,0.0,0.0,86,0.00,,,0.01,VWS V14.00,2013-04-29 14:04:00,
2013-04-29 10:09:00,54.1,49.7,30.27,South,187,0.0,0.0,85,0.00,,,0.01,VWS V14.00,2013-04-29 14:09:00,
2013-04-29 10:14:00,54.2,49.7,30.27,SW,222,0.0,4.7,85,0.00,,,0.01,VWS V14.00,2013-04-29 14:14:00,
2013-04-29 10:19:00,54.4,49.8,30.27,SW,222,0.0,4.7,84,0.00,,,0.01,VWS V14.00,2013-04-29 14:19:00,
2013-04-29 10:25:00,54.5,49.5,30.27,SW,222,0.0,0.0,83,0.00,,,0.01,VWS V14.00,2013-04-29 14:25:00,
2013-04-29 10:30:00,54.6,49.2,30.27,NNW,340,0.0,4.8,82,0.00,,,0.01,VWS V14.00,2013-04-29 14:30:00,
2013-04-29 10:35:00,54.8,49.6,30.27,NW,311,0.0,3.2,82,0.00,,,0.01,VWS V14.00,2013-04-29 14:35:00,
2013-04-29 10:40:00,54.9,49.2,30.27,South,181,0.0,8.9,81,0.00,,,0.01,VWS V14.00,2013-04-29 14:40:00,
2013-04-29 10:45:00,55.4,50.2,30.27,South,181,0.0,0.0,83,0.00,,,0.01,VWS V14.00,2013-04-29 14:45:00,
2013-04-29 10:50:00,55.5,49.9,30.27,South,181,0.0,0.0,81,0.00,,,0.01,VWS V14.00,2013-04-29 14:50:00,
2013-04-29 10:55:00,55.6,49.8,30.27,South,181,0.0,0.0,81,0.00,,,0.01,VWS V14.00,2013-04-29 14:55:00,
2013-04-29 11:00:00,55.5,49.3,30.27,SW,233,2.7,5.8,80,0.00,,OVC012,0.01,VWS V14.00,2013-04-29 15:00:00,
2013-04-29 11:05:00,55.3,49.4,30.27,WSW,245,0.0,5.4,80,0.00,,OVC012,0.01,VWS V14.00,2013-04-29 15:05:00,
2013-04-29 11:10:00,55.2,49.4,30.27,WSW,252,0.0,6.9,81,0.00,,OVC012,0.01,VWS V14.00,2013-04-29 15:10:00,
2013-04-29 11:15:00,55.4,49.5,30.27,WSW,252,0.0,0.0,80,0.00,,OVC012,0.01,VWS V14.00,2013-04-29 15:15:00,
2013-04-29 11:20:00,55.4,49.2,30.27,WSW,252,0.0,0.0,80,0.00,,OVC012,0.01,VWS V14.00,2013-04-29 15:20:00,
2013-04-29 11:25:00,55.5,49.3,30.27,SSW,200,0.0,5.7,80,0.00,,OVC012,0.01,VWS V14.00,2013-04-29 15:25:00,
2013-04-29 11:30:00,55.6,49.9,30.27,SSW,200,0.0,5.7,81,0.00,,OVC012,0.01,VWS V14.00,2013-04-29 15:30:00,
2013-04-29 11:35:00,55.7,49.4,30.27,SSW,205,3.5,5.8,79,0.00,,OVC012,0.01,VWS V14.00,2013-04-29 15:35:00,
2013-04-29 11:40:00,55.6,48.7,30.26,WNW,298,0.0,7.0,78,0.00,,OVC012,0.01,VWS V14.00,2013-04-29 15:40:00,
2013-04-29 11:45:00,55.7,48.5,30.27,South,184,0.0,6.3,77,0.00,,OVC012,0.01,VWS V14.00,2013-04-29 15:45:00,
2013-04-29 11:50:00,55.8,48.8,30.26,SSE,155,0.0,6.3,77,0.00,,OVC012,0.01,VWS V14.00,2013-04-29 15:50:00,
2013-04-29 11:55:00,56.1,48.7,30.26,SSE,167,0.0,8.1,76,0.00,,OVC012,0.01,VWS V14.00,2013-04-29 15:55:00,
2013-04-29 12:01:00,56.7,49.1,30.26,South,191,2.7,2.9,76,0.00,,BKN020,0.01,VWS V14.00,2013-04-29 16:01:00,
2013-04-29 12:06:00,56.8,48.3,30.26,SW,231,3.4,6.5,73,0.00,,BKN020,0.01,VWS V14.00,2013-04-29 16:06:00,
2013-04-29 12:11:00,56.7,47.8,30.26,SW,219,0.0,0.0,72,0.00,,BKN020,0.01,VWS V14.00,2013-04-29 16:11:00,
2013-04-29 12:16:00,56.6,47.5,30.25,SW,219,0.0,0.0,71,0.00,,BKN020,0.01,VWS V14.00,2013-04-29 16:16:00,
2013-04-29 12:21:00,56.7,48.2,30.26,SW,219,0.0,0.0,73,0.00,,BKN020,0.01,VWS V14.00,2013-04-29 16:21:00,
2013-04-29 12:26:00,56.7,48.2,30.26,SW,219,0.0,0.0,73,0.00,,BKN020,0.01,VWS V14.00,2013-04-29 16:26:00,
2013-04-29 12:31:00,56.8,48.1,30.26,SW,219,0.0,0.0,73,0.00,,BKN020,0.01,VWS V14.00,2013-04-29 16:31:00,
2013-04-29 12:36:00,56.8,47.2,30.26,SW,219,0.0,0.0,70,0.00,,BKN020,0.01,VWS V14.00,2013-04-29 16:36:00,
2013-04-29 12:41:00,56.8,47.8,30.26,SW,219,0.0,0.0,72,0.00,,BKN020,0.01,VWS V14.00,2013-04-29 16:41:00,
2013-04-29 12:47:00,56.8,47.3,30.26,SSW,198,0.0,6.1,70,0.00,,BKN020,0.01,VWS V14.00,2013-04-29 16:47:00,
2013-04-29 12:52:00,56.6,47.4,30.26,SSW,198,0.0,0.0,71,0.00,,BKN020,0.01,VWS V14.00,2013-04-29 16:52:00,
2013-04-29 12:57:00,56.4,47.0,30.25,SSW,198,0.0,0.0,71,0.00,,BKN020,0.01,VWS V14.00,2013-04-29 16:57:00,
2013-04-29 13:02:00,56.4,47.3,30.25,SSW,198,0.0,0.0,72,0.00,,BKN035,0.01,VWS V14.00,2013-04-29 17:02:00,
2013-04-29 13:07:00,56.4,47.5,30.25,SSW,198,0.0,0.0,72,0.00,,BKN035,0.01,VWS V14.00,2013-04-29 17:07:00,
2013-04-29 13:12:00,56.3,47.0,30.25,SW,215,0.0,4.2,71,0.00,,BKN035,0.01,VWS V14.00,2013-04-29 17:12:00,
2013-04-29 13:17:00,56.3,46.4,30.25,WSW,238,0.0,6.2,69,0.00,,BKN035,0.01,VWS V14.00,2013-04-29 17:17:00,
2013-04-29 13:22:00,56.3,46.7,30.25,SE,135,0.0,0.0,70,0.00,,BKN035,0.01,VWS V14.00,2013-04-29 17:22:00,
2013-04-29 13:27:00,56.4,47.2,30.26,SE,135,0.0,0.0,71,0.00,,BKN035,0.01,VWS V14.00,2013-04-29 17:27:00,
2013-04-29 13:32:00,56.4,47.3,30.25,ESE,114,0.0,0.0,72,0.00,,BKN035,0.01,VWS V14.00,2013-04-29 17:32:00,
2013-04-29 13:38:00,56.3,47.1,30.25,ESE,114,0.0,0.0,71,0.00,,BKN035,0.01,VWS V14.00,2013-04-29 17:38:00,
2013-04-29 13:43:00,56.3,46.8,30.25,South,179,0.0,3.3,70,0.00,,BKN035,0.01,VWS V14.00,2013-04-29 17:43:00,
2013-04-29 13:48:00,56.2,47.0,30.25,SSE,165,0.0,5.0,71,0.00,,BKN035,0.01,VWS V14.00,2013-04-29 17:48:00,
2013-04-29 13:53:00,56.4,47.6,30.25,NW,308,0.0,4.7,72,0.00,,BKN035,0.01,VWS V14.00,2013-04-29 17:53:00,
2013-04-29 13:58:00,56.4,47.2,30.25,NW,308,0.0,4.7,71,0.00,,BKN035,0.01,VWS V14.00,2013-04-29 17:58:00,
2013-04-29 14:03:00,56.4,46.8,30.25,West,277,0.0,5.0,70,0.00,,BKN035,0.01,VWS V14.00,2013-04-29 18:03:00,
2013-04-29 14:08:00,56.5,46.9,30.25,West,277,0.0,5.0,70,0.00,,BKN035,0.01,VWS V14.00,2013-04-29 18:08:00,
2013-04-29 14:13:00,56.7,47.5,30.25,West,277,0.0,0.0,71,0.00,,BKN035,0.01,VWS V14.00,2013-04-29 18:13:00,
2013-04-29 14:18:00,56.7,46.8,30.25,West,277,0.0,0.0,70,0.00,,BKN035,0.01,VWS V14.00,2013-04-29 18:18:00,
2013-04-29 14:24:00,56.8,46.8,30.25,West,277,0.0,0.0,69,0.00,,BKN035,0.01,VWS V14.00,2013-04-29 18:24:00,
2013-04-29 14:29:00,56.9,46.5,30.25,West,277,0.0,0.0,68,0.00,,BKN035,0.01,VWS V14.00,2013-04-29 18:29:00,
2013-04-29 14:34:00,57.1,46.5,30.25,West,277,0.0,0.0,68,0.00,,BKN035,0.01,VWS V14.00,2013-04-29 18:34:00,
2013-04-29 14:39:00,57.2,46.3,30.25,SSE,150,0.0,5.3,67,0.00,,BKN035,0.01,VWS V14.00,2013-04-29 18:39:00,
2013-04-29 14:44:00,57.2,46.1,30.25,SSE,150,2.7,2.7,66,0.00,,BKN035,0.01,VWS V14.00,2013-04-29 18:44:00,
2013-04-29 14:49:00,57.3,46.9,30.25,SSW,207,0.0,3.2,68,0.00,,BKN035,0.01,VWS V14.00,2013-04-29 18:49:00,
2013-04-29 14:54:00,57.2,46.4,30.25,SSW,207,0.0,2.7,67,0.00,,BKN035,0.01,VWS V14.00,2013-04-29 18:54:00,
2013-04-29 14:59:00,57.3,47.0,30.24,SSW,207,0.0,2.7,68,0.00,,BKN035,0.01,VWS V14.00,2013-04-29 18:59:00,
2013-04-29 15:04:00,57.4,47.1,30.25,NW,307,0.0,3.5,68,0.00,,BKN050,0.01,VWS V14.00,2013-04-29 19:04:00,
2013-04-29 15:09:00,57.4,47.4,30.24,NW,307,0.0,3.5,69,0.00,,BKN050,0.01,VWS V14.00,2013-04-29 19:09:00,
2013-04-29 15:15:00,57.4,47.2,30.24,NW,307,0.0,0.0,69,0.00,,BKN050,0.01,VWS V14.00,2013-04-29 19:15:00,
2013-04-29 15:20:00,57.4,46.9,30.24,West,260,0.0,5.0,68,0.00,,BKN050,0.01,VWS V14.00,2013-04-29 19:20:00,
2013-04-29 15:25:00,57.5,47.5,30.25,West,260,0.0,0.0,69,0.00,,BKN050,0.01,VWS V14.00,2013-04-29 19:25:00,
2013-04-29 15:30:00,57.4,47.4,30.24,West,266,0.0,4.5,69,0.00,,BKN050,0.01,VWS V14.00,2013-04-29 19:30:00,
2013-04-29 15:35:00,57.4,47.6,30.24,West,266,0.0,0.0,70,0.00,,BKN050,0.01,VWS V14.00,2013-04-29 19:35:00,
2013-04-29 15:40:00,57.3,48.5,30.24,West,260,0.0,5.0,72,0.00,,BKN050,0.01,VWS V14.00,2013-04-29 19:40:00,
2013-04-29 15:45:00,57.1,47.7,30.24,West,260,0.0,0.0,71,0.00,,BKN050,0.01,VWS V14.00,2013-04-29 19:45:00,
2013-04-29 15:50:00,57.0,48.6,30.24,WNW,283,0.0,5.3,74,0.00,,BKN050,0.01,VWS V14.00,2013-04-29 19:50:00,
2013-04-29 15:55:00,57.0,48.0,30.24,WNW,283,0.0,0.0,72,0.00,,BKN050,0.01,VWS V14.00,2013-04-29 19:55:00,
2013-04-29 16:00:00,57.0,47.8,30.23,WNW,283,0.0,0.0,71,0.00,,BKN060,0.01,VWS V14.00,2013-04-29 20:00:00,
2013-04-29 16:05:00,56.9,48.0,30.23,WNW,283,0.0,0.0,72,0.00,,BKN060,0.01,VWS V14.00,2013-04-29 20:05:00,
2013-04-29 16:10:00,56.9,48.0,30.23,WNW,283,0.0,0.0,72,0.00,,BKN060,0.01,VWS V14.00,2013-04-29 20:10:00,
2013-04-29 16:16:00,56.7,47.2,30.24,WNW,283,0.0,4.2,70,0.00,,BKN060,0.01,VWS V14.00,2013-04-29 20:16:00,
2013-04-29 16:21:00,56.7,47.9,30.23,WNW,283,0.0,0.0,72,0.00,,BKN060,0.01,VWS V14.00,2013-04-29 20:21:00,
2013-04-29 16:26:00,56.7,47.7,30.23,SW,224,0.0,6.1,72,0.00,,BKN060,0.01,VWS V14.00,2013-04-29 20:26:00,
2013-04-29 16:31:00,56.8,48.2,30.23,SW,224,0.0,0.0,73,0.00,,BKN060,0.01,VWS V14.00,2013-04-29 20:31:00,
2013-04-29 16:36:00,56.6,47.5,30.23,SW,224,0.0,0.0,72,0.00,,BKN060,0.01,VWS V14.00,2013-04-29 20:36:00,
2013-04-29 16:41:00,56.7,47.7,30.23,SW,224,0.0,0.0,72,0.00,,BKN060,0.01,VWS V14.00,2013-04-29 20:41:00,
2013-04-29 16:46:00,56.7,47.3,30.23,SW,226,0.0,3.4,71,0.00,,BKN060,0.01,VWS V14.00,2013-04-29 20:46:00,
2013-04-29 16:51:00,56.8,48.5,30.24,SW,226,0.0,0.0,74,0.00,,BKN060,0.01,VWS V14.00,2013-04-29 20:51:00,
2013-04-29 16:56:00,56.7,48.2,30.24,SW,226,0.0,0.0,73,0.00,,BKN060,0.01,VWS V14.00,2013-04-29 20:56:00,
2013-04-29 17:02:00,56.3,47.1,30.24,WSW,243,0.0,0.0,71,0.00,,BKN047,0.01,VWS V14.00,2013-04-29 21:02:00,
2013-04-29 17:07:00,56.3,47.6,30.24,WSW,243,0.0,0.0,72,0.00,,BKN047,0.01,VWS V14.00,2013-04-29 21:07:00,
2013-04-29 17:12:00,56.2,47.5,30.24,WSW,243,0.0,0.0,72,0.00,,BKN047,0.01,VWS V14.00,2013-04-29 21:12:00,
2013-04-29 17:17:00,56.1,47.1,30.24,WSW,240,0.0,6.0,72,0.00,,BKN047,0.01,VWS V14.00,2013-04-29 21:17:00,
2013-04-29 17:22:00,56.0,47.0,30.24,WSW,240,0.0,0.0,72,0.00,,BKN047,0.01,VWS V14.00,2013-04-29 21:22:00,
2013-04-29 17:27:00,56.0,47.2,30.24,WSW,240,0.0,0.0,72,0.00,,BKN047,0.01,VWS V14.00,2013-04-29 21:27:00,
2013-04-29 17:32:00,56.0,46.7,30.24,WSW,240,0.0,0.0,71,0.00,,BKN047,0.01,VWS V14.00,2013-04-29 21:32:00,
2013-04-29 17:37:00,56.0,47.1,30.24,WSW,240,0.0,0.0,72,0.00,,BKN047,0.01,VWS V14.00,2013-04-29 21:37:00,
2013-04-29 17:42:00,56.0,46.7,30.24,WSW,240,0.0,0.0,71,0.00,,BKN047,0.01,VWS V14.00,2013-04-29 21:42:00,
2013-04-29 17:47:00,55.9,46.7,30.24,WSW,240,0.0,0.0,71,0.00,,BKN047,0.01,VWS V14.00,2013-04-29 21:47:00,
2013-04-29 17:52:00,55.9,46.3,30.23,WSW,240,0.0,0.0,70,0.00,,BKN047,0.01,VWS V14.00,2013-04-29 21:52:00,
2013-04-29 17:58:00,55.8,45.9,30.23,WSW,240,0.0,0.0,69,0.00,,BKN047,0.01,VWS V14.00,2013-04-29 21:58:00,
2013-04-29 18:03:00,55.8,45.5,30.23,WSW,240,0.0,0.0,68,0.00,,BKN060,0.01,VWS V14.00,2013-04-29 22:03:00,
2013-04-29 18:08:00,55.8,45.9,30.23,WSW,240,0.0,0.0,69,0.00,,BKN060,0.01,VWS V14.00,2013-04-29 22:08:00,
2013-04-29 18:13:00,55.8,46.1,30.23,WSW,240,0.0,0.0,70,0.00,,BKN060,0.01,VWS V14.00,2013-04-29 22:13:00,
2013-04-29 18:18:00,55.8,46.5,30.23,WSW,240,0.0,0.0,71,0.00,,BKN060,0.01,VWS V14.00,2013-04-29 22:18:00,
2013-04-29 18:23:00,55.8,46.2,30.23,WSW,240,0.0,0.0,70,0.00,,BKN060,0.01,VWS V14.00,2013-04-29 22:23:00,
2013-04-29 18:28:00,55.6,45.4,30.23,WSW,240,0.0,0.0,68,0.00,,BKN060,0.01,VWS V14.00,2013-04-29 22:28:00,
2013-04-29 18:33:00,55.6,45.5,30.23,WSW,240,0.0,0.0,69,0.00,,BKN060,0.01,VWS V14.00,2013-04-29 22:33:00,
2013-04-29 18:38:00,55.5,45.5,30.23,WSW,240,0.0,0.0,69,0.00,,BKN060,0.01,VWS V14.00,2013-04-29 22:38:00,
2013-04-29 18:43:00,55.4,45.1,30.23,WSW,240,0.0,0.0,68,0.00,,BKN060,0.01,VWS V14.00,2013-04-29 22:43:00,
2013-04-29 18:48:00,55.3,44.2,30.23,WSW,240,0.0,0.0,66,0.00,,BKN060,0.01,VWS V14.00,2013-04-29 22:48:00,
2013-04-29 18:54:00,55.3,44.2,30.23,WSW,240,0.0,0.0,66,0.00,,BKN060,0.01,VWS V14.00,2013-04-29 22:54:00,
2013-04-29 18:59:00,55.3,44.7,30.23,WSW,240,0.0,0.0,67,0.00,,BKN060,0.01,VWS V14.00,2013-04-29 22:59:00,
2013-04-29 19:04:00,55.3,45.1,30.23,WSW,240,0.0,0.0,68,0.00,,BKN065,0.01,VWS V14.00,2013-04-29 23:04:00,
2013-04-29 19:09:00,55.2,45.3,30.23,WSW,240,0.0,0.0,69,0.00,,BKN065,0.01,VWS V14.00,2013-04-29 23:09:00,
2013-04-29 19:14:00,55.0,44.1,30.24,WSW,240,0.0,0.0,67,0.00,,BKN065,0.01,VWS V14.00,2013-04-29 23:14:00,
2013-04-29 19:19:00,55.0,44.4,30.24,WSW,240,0.0,0.0,67,0.00,,BKN065,0.01,VWS V14.00,2013-04-29 23:19:00,
2013-04-29 19:24:00,55.0,44.7,30.24,WSW,240,0.0,0.0,68,0.00,,BKN065,0.01,VWS V14.00,2013-04-29 23:24:00,
2013-04-29 19:29:00,54.8,42.7,30.24,WSW,240,0.0,0.0,64,0.00,,BKN065,0.01,VWS V14.00,2013-04-29 23:29:00,
2013-04-29 19:34:00,54.8,42.5,30.25,WSW,240,0.0,0.0,63,0.00,,BKN065,0.01,VWS V14.00,2013-04-29 23:34:00,
2013-04-29 19:39:00,54.7,43.1,30.24,WSW,240,0.0,0.0,65,0.00,,BKN065,0.01,VWS V14.00,2013-04-29 23:39:00,
2013-04-29 19:45:00,54.5,43.1,30.24,WSW,240,0.0,0.0,65,0.00,,BKN065,0.01,VWS V14.00,2013-04-29 23:45:00,
2013-04-29 19:50:00,54.4,43.4,30.24,WSW,240,0.0,0.0,66,0.00,,BKN065,0.01,VWS V14.00,2013-04-29 23:50:00,
2013-04-29 19:55:00,54.2,41.8,30.24,WSW,240,0.0,0.0,63,0.00,,BKN065,0.01,VWS V14.00,2013-04-29 23:55:00,
2013-04-29 20:00:00,54.1,42.5,30.24,WSW,240,0.0,0.0,65,0.00,,SCT065,0.01,VWS V14.00,2013-04-30 00:00:00,
2013-04-29 20:05:00,54.0,42.2,30.24,WSW,240,0.0,0.0,64,0.00,,SCT065,0.01,VWS V14.00,2013-04-30 00:05:00,
2013-04-29 20:10:00,53.8,42.2,30.25,WSW,240,0.0,0.0,65,0.00,,SCT065,0.01,VWS V14.00,2013-04-30 00:10:00,
2013-04-29 20:15:00,53.7,42.1,30.25,WSW,240,0.0,0.0,65,0.00,,SCT065,0.01,VWS V14.00,2013-04-30 00:15:00,
2013-04-29 20:20:00,53.6,42.2,30.25,WSW,240,0.0,0.0,65,0.00,,SCT065,0.01,VWS V14.00,2013-04-30 00:20:00,
2013-04-29 20:25:00,53.5,42.0,30.25,WSW,240,0.0,0.0,65,0.00,,SCT065,0.01,VWS V14.00,2013-04-30 00:25:00,
2013-04-29 20:30:00,53.4,41.8,30.25,WSW,240,0.0,0.0,65,0.00,,SCT065,0.01,VWS V14.00,2013-04-30 00:30:00,
2013-04-29 20:36:00,53.4,41.7,30.25,WSW,240,0.0,0.0,64,0.00,,SCT065,0.01,VWS V14.00,2013-04-30 00:36:00,
2013-04-29 20:41:00,53.2,41.9,30.25,WSW,240,0.0,0.0,65,0.00,,SCT065,0.01,VWS V14.00,2013-04-30 00:41:00,
2013-04-29 20:46:00,53.1,41.7,30.26,WSW,240,0.0,0.0,65,0.00,,SCT065,0.01,VWS V14.00,2013-04-30 00:46:00,
2013-04-29 20:51:00,53.1,42.1,30.26,WSW,240,0.0,0.0,66,0.00,,SCT065,0.01,VWS V14.00,2013-04-30 00:51:00,
2013-04-29 20:56:00,52.9,41.7,30.26,WSW,240,0.0,0.0,66,0.00,,SCT065,0.01,VWS V14.00,2013-04-30 00:56:00,
2013-04-29 21:01:00,52.9,42.0,30.26,WSW,240,0.0,0.0,66,0.00,,FEW060,0.01,VWS V14.00,2013-04-30 01:01:00,
2013-04-29 21:06:00,52.8,42.1,30.26,WSW,240,0.0,0.0,67,0.00,,FEW060,0.01,VWS V14.00,2013-04-30 01:06:00,
2013-04-29 21:11:00,52.8,41.9,30.26,WSW,240,0.0,0.0,66,0.00,,FEW060,0.01,VWS V14.00,2013-04-30 01:11:00,
2013-04-29 21:16:00,52.7,42.1,30.26,WSW,240,0.0,0.0,67,0.00,,FEW060,0.01,VWS V14.00,2013-04-30 01:16:00,
2013-04-29 21:21:00,52.7,42.4,30.26,WSW,240,0.0,0.0,68,0.00,,FEW060,0.01,VWS V14.00,2013-04-30 01:21:00,
2013-04-29 21:27:00,52.6,42.2,30.26,WSW,240,0.0,0.0,68,0.00,,FEW060,0.01,VWS V14.00,2013-04-30 01:27:00,
2013-04-29 21:32:00,52.5,42.5,30.26,WSW,240,0.0,0.0,69,0.00,,FEW060,0.01,VWS V14.00,2013-04-30 01:32:00,
2013-04-29 21:37:00,52.4,42.3,30.27,WSW,240,0.0,0.0,68,0.00,,FEW060,0.01,VWS V14.00,2013-04-30 01:37:00,
2013-04-29 21:42:00,52.5,42.9,30.27,WSW,240,0.0,0.0,70,0.00,,FEW060,0.01,VWS V14.00,2013-04-30 01:42:00,
2013-04-29 21:47:00,52.4,43.0,30.27,WSW,240,0.0,0.0,70,0.00,,FEW060,0.01,VWS V14.00,2013-04-30 01:47:00,
2013-04-29 21:52:00,52.3,42.7,30.27,WSW,240,0.0,0.0,70,0.00,,FEW060,0.01,VWS V14.00,2013-04-30 01:52:00,
2013-04-29 21:57:00,52.4,43.2,30.27,WSW,240,0.0,0.0,71,0.00,,FEW060,0.01,VWS V14.00,2013-04-30 01:57:00,
2013-04-29 22:02:00,52.3,42.9,30.27,WSW,240,0.0,0.0,70,0.00,,FEW060,0.01,VWS V14.00,2013-04-30 02:02:00,
2013-04-29 22:07:00,52.3,43.1,30.27,WSW,240,0.0,0.0,71,0.00,,FEW060,0.01,VWS V14.00,2013-04-30 02:07:00,
2013-04-29 22:12:00,52.2,43.0,30.27,WSW,240,0.0,0.0,71,0.00,,FEW060,0.01,VWS V14.00,2013-04-30 02:12:00,
2013-04-29 22:17:00,52.2,43.2,30.27,WSW,240,0.0,0.0,71,0.00,,FEW060,0.01,VWS V14.00,2013-04-30 02:17:00,
2013-04-29 22:22:00,52.2,43.3,30.27,WSW,240,0.0,0.0,72,0.00,,FEW060,0.01,VWS V14.00,2013-04-30 02:22:00,
2013-04-29 22:27:00,52.2,43.7,30.28,WSW,240,0.0,0.0,73,0.00,,FEW060,0.01,VWS V14.00,2013-04-30 02:27:00,
2013-04-29 22:32:00,52.1,43.7,30.27,WSW,240,0.0,0.0,73,0.00,,FEW060,0.01,VWS V14.00,2013-04-30 02:32:00,
2013-04-29 22:38:00,52.2,44.0,30.27,WSW,240,0.0,0.0,74,0.00,,FEW060,0.01,VWS V14.00,2013-04-30 02:38:00,
2013-04-29 22:43:00,52.1,43.9,30.27,WSW,240,0.0,0.0,74,0.00,,FEW060,0.01,VWS V14.00,2013-04-30 02:43:00,
2013-04-29 22:48:00,52.0,43.8,30.27,WSW,240,0.0,0.0,74,0.00,,FEW060,0.01,VWS V14.00,2013-04-30 02:48:00,
2013-04-29 22:53:00,52.0,44.0,30.27,WSW,240,0.0,0.0,74,0.00,,FEW060,0.01,VWS V14.00,2013-04-30 02:53:00,
2013-04-29 22:58:00,51.9,44.2,30.27,WSW,240,0.0,0.0,75,0.00,,FEW060,0.01,VWS V14.00,2013-04-30 02:58:00,
2013-04-29 23:03:00,51.7,44.2,30.27,WSW,240,0.0,0.0,76,0.00,,SCT065,0.01,VWS V14.00,2013-04-30 03:03:00,
2013-04-29 23:08:00,51.5,44.0,30.27,WSW,240,0.0,0.0,75,0.00,,SCT065,0.01,VWS V14.00,2013-04-30 03:08:00,
2013-04-29 23:13:00,51.6,44.3,30.27,WSW,240,0.0,0.0,76,0.00,,SCT065,0.01,VWS V14.00,2013-04-30 03:13:00,
2013-04-29 23:18:00,51.5,44.1,30.26,WSW,240,0.0,0.0,76,0.00,,SCT065,0.01,VWS V14.00,2013-04-30 03:18:00,
2013-04-29 23:24:00,51.5,44.3,30.26,WSW,240,0.0,0.0,76,0.00,,SCT065,0.01,VWS V14.00,2013-04-30 03:24:00,
2013-04-29 23:28:00,51.4,44.2,30.26,WSW,240,0.0,0.0,76,0.00,,SCT065,0.01,VWS V14.00,2013-04-30 03:28:00,
2013-04-29 23:33:00,51.3,44.2,30.26,WSW,240,0.0,0.0,77,0.00,,SCT065,0.01,VWS V14.00,2013-04-30 03:33:00,
2013-04-29 23:39:00,51.2,44.2,30.26,WSW,240,0.0,0.0,77,0.00,,SCT065,0.01,VWS V14.00,2013-04-30 03:39:00,
2013-04-29 23:44:00,51.1,44.2,30.26,WSW,240,0.0,0.0,77,0.00,,SCT065,0.01,VWS V14.00,2013-04-30 03:44:00,
2013-04-29 23:49:00,51.0,44.3,30.26,WSW,240,0.0,0.0,78,0.00,,SCT065,0.01,VWS V14.00,2013-04-30 03:49:00,
2013-04-29 23:54:00,51.0,44.4,30.26,WSW,240,0.0,0.0,78,0.00,,SCT065,0.01,VWS V14.00,2013-04-30 03:54:00,
2013-04-29 23:59:00,51.0,44.5,30.26,WSW,240,0.0,0.0,78,0.00,,SCT065,0.01,VWS V14.00,2013-04-30 03:59:00,